createdAt,value
2019-01-14T00:00:35.123Z,6.20
2019-01-14T00:03:04.850Z,5.63
2019-01-14T00:05:34.141Z,5.57
2019-01-14T00:08:06.239Z,4.60
2019-01-14T00:10:34.458Z,4.93
2019-01-14T00:13:03.617Z,5.10
2019-01-14T00:15:32.805Z,5.07
2019-01-14T00:18:02.067Z,5.13
2019-01-14T00:20:31.247Z,5.83
2019-01-14T00:23:00.434Z,4.00
2019-01-14T00:25:29.623Z,4.63
2019-01-14T00:27:58.799Z,3.90
2019-01-14T00:30:27.983Z,5.50
2019-01-14T00:32:57.191Z,5.37
2019-01-14T00:35:26.379Z,5.87
2019-01-14T00:37:55.549Z,6.30
2019-01-14T00:40:24.769Z,5.17
2019-01-14T00:42:54.027Z,5.17
2019-01-14T00:45:23.323Z,5.17
2019-01-14T00:47:52.526Z,5.47
2019-01-14T00:50:21.726Z,4.50
2019-01-14T00:52:50.908Z,4.93
2019-01-14T00:55:20.169Z,4.47
2019-01-14T00:57:49.349Z,4.77
2019-01-14T01:00:22.907Z,4.53
2019-01-14T01:02:52.145Z,4.47
2019-01-14T01:05:21.323Z,5.07
2019-01-14T01:07:50.617Z,5.40
2019-01-14T01:10:19.953Z,4.20
2019-01-14T01:12:49.386Z,3.90
2019-01-14T01:15:18.868Z,3.77
2019-01-14T01:17:48.052Z,4.53
2019-01-14T01:20:19.042Z,4.50
2019-01-14T01:22:48.234Z,4.87
2019-01-14T01:25:17.851Z,4.40
2019-01-14T01:27:47.766Z,4.70
2019-01-14T01:30:17.808Z,4.20
2019-01-14T01:32:46.989Z,4.23
2019-01-14T01:35:16.508Z,4.43
2019-01-14T01:37:45.995Z,4.00
2019-01-14T01:40:17.514Z,4.40
2019-01-14T01:42:46.919Z,4.10
2019-01-14T01:45:16.864Z,3.23
2019-01-14T01:47:46.105Z,4.63
2019-01-14T01:50:16.811Z,4.20
2019-01-14T01:52:46.080Z,4.10
2019-01-14T01:55:15.601Z,4.33
2019-01-14T01:57:44.770Z,4.00
2019-01-14T02:00:16.477Z,4.17
2019-01-14T02:02:45.654Z,4.57
2019-01-14T02:05:16.946Z,4.27
2019-01-14T02:07:46.136Z,4.10
2019-01-14T02:10:20.458Z,5.53
2019-01-14T02:12:49.799Z,4.57
2019-01-14T02:15:20.029Z,4.50
2019-01-14T02:17:50.966Z,3.90
2019-01-14T02:20:20.580Z,4.50
2019-01-14T02:22:49.784Z,4.33
2019-01-14T02:25:19.115Z,5.13
2019-01-14T02:27:48.255Z,4.97
2019-01-14T02:30:19.445Z,4.00
2019-01-14T02:32:48.701Z,4.73
2019-01-14T02:35:18.319Z,3.43
2019-01-14T02:37:47.532Z,3.97
2019-01-14T02:40:21.168Z,4.40
2019-01-14T02:42:50.336Z,4.83
2019-01-14T02:45:19.741Z,3.93
2019-01-14T02:47:49.191Z,3.87
2019-01-14T02:50:18.379Z,4.07
2019-01-14T02:52:47.581Z,5.20
2019-01-14T02:55:16.770Z,5.20
2019-01-14T02:57:46.046Z,4.10
2019-01-14T03:00:26.073Z,4.60
2019-01-14T03:02:55.250Z,4.20
2019-01-14T03:05:24.836Z,4.37
2019-01-14T03:07:54.046Z,3.93
2019-01-14T03:10:23.292Z,4.27
2019-01-14T03:12:52.482Z,3.67
2019-01-14T03:15:21.709Z,4.00
2019-01-14T03:17:50.960Z,3.90
2019-01-14T03:20:20.134Z,4.07
2019-01-14T03:22:49.578Z,3.47
2019-01-14T03:25:18.784Z,4.83
2019-01-14T03:27:47.966Z,3.70
2019-01-14T03:30:18.400Z,5.80
2019-01-14T03:32:47.742Z,4.53
2019-01-14T03:35:17.007Z,5.03
2019-01-14T03:37:46.190Z,3.60
2019-01-14T03:40:16.402Z,3.80
2019-01-14T03:42:45.698Z,5.37
2019-01-14T03:45:15.492Z,4.37
2019-01-14T03:47:44.747Z,4.57
2019-01-14T03:50:20.384Z,6.10
2019-01-14T03:52:49.620Z,4.07
2019-01-14T03:55:18.905Z,5.27
2019-01-14T03:57:48.424Z,3.67
2019-01-14T04:00:18.138Z,3.93
2019-01-14T04:02:47.339Z,3.77
2019-01-14T04:05:16.612Z,4.33
2019-01-14T04:07:45.884Z,4.70
2019-01-14T04:10:16.793Z,4.47
2019-01-14T04:12:46.000Z,4.80
2019-01-14T04:15:17.603Z,4.53
2019-01-14T04:17:46.845Z,5.20
2019-01-14T04:20:17.705Z,3.47
2019-01-14T04:22:47.130Z,3.90
2019-01-14T04:25:16.735Z,3.23
2019-01-14T04:27:45.920Z,5.07
2019-01-14T04:30:20.383Z,4.00
2019-01-14T04:32:50.140Z,3.50
2019-01-14T04:35:20.843Z,3.90
2019-01-14T04:37:50.160Z,3.80
2019-01-14T04:40:19.383Z,4.03
2019-01-14T04:42:48.548Z,3.47
2019-01-14T04:45:17.904Z,3.03
2019-01-14T04:47:47.085Z,2.63
2019-01-14T04:50:18.705Z,2.73
2019-01-14T04:52:47.884Z,3.20
2019-01-14T04:55:17.217Z,2.47
2019-01-14T04:57:46.401Z,3.67
2019-01-14T05:00:21.282Z,3.57
2019-01-14T05:02:50.465Z,3.27
2019-01-14T05:05:20.075Z,4.97
2019-01-14T05:07:49.280Z,3.77
2019-01-14T05:10:20.089Z,3.67
2019-01-14T05:12:49.271Z,3.60
2019-01-14T05:15:18.455Z,3.70
2019-01-14T05:17:47.624Z,3.33
2019-01-14T05:20:19.681Z,3.07
2019-01-14T05:22:48.874Z,3.77
2019-01-14T05:25:18.243Z,3.00
2019-01-14T05:27:47.591Z,3.33
2019-01-14T05:30:18.530Z,3.33
2019-01-14T05:32:48.040Z,3.20
2019-01-14T05:35:17.382Z,2.93
2019-01-14T05:37:46.625Z,3.77
2019-01-14T05:40:20.978Z,3.10
2019-01-14T05:42:50.194Z,2.93
2019-01-14T05:45:19.436Z,3.00
2019-01-14T05:47:48.614Z,2.87
2019-01-14T05:50:18.157Z,2.43
2019-01-14T05:52:47.619Z,2.33
2019-01-14T05:55:17.838Z,1.83
2019-01-14T05:57:47.110Z,1.90
2019-01-14T06:00:25.829Z,2.07
2019-01-14T06:02:55.094Z,1.77
2019-01-14T06:05:24.275Z,2.20
2019-01-14T06:07:53.440Z,1.60
2019-01-14T06:10:22.960Z,1.87
2019-01-14T06:12:52.158Z,1.97
2019-01-14T06:15:21.866Z,1.70
2019-01-14T06:17:51.051Z,1.57
2019-01-14T06:20:22.069Z,2.23
2019-01-14T06:22:51.234Z,1.80
2019-01-14T06:25:20.472Z,2.43
2019-01-14T06:27:49.659Z,2.13
2019-01-14T06:30:21.527Z,2.83
2019-01-14T06:32:50.859Z,2.13
2019-01-14T06:35:20.273Z,2.80
2019-01-14T06:37:52.575Z,3.13
2019-01-14T06:40:21.391Z,2.57
2019-01-14T06:42:50.911Z,2.73
2019-01-14T06:45:20.231Z,3.40
2019-01-14T06:47:50.382Z,3.00
2019-01-14T06:50:20.402Z,2.40
2019-01-14T06:52:49.753Z,3.83
2019-01-14T06:55:19.386Z,2.30
2019-01-14T06:57:48.729Z,3.27
2019-01-14T07:00:20.821Z,2.37
2019-01-14T07:02:50.193Z,2.27
2019-01-14T07:05:19.727Z,2.33
2019-01-14T07:07:49.245Z,1.80
2019-01-14T07:10:23.988Z,1.80
2019-01-14T07:12:53.259Z,2.93
2019-01-14T07:15:22.703Z,1.67
2019-01-14T07:17:52.854Z,2.23
2019-01-14T07:20:22.259Z,1.80
2019-01-14T07:22:51.513Z,2.40
2019-01-14T07:25:20.791Z,2.90
2019-01-14T07:27:49.958Z,2.03
2019-01-14T07:30:21.478Z,2.40
2019-01-14T07:32:50.676Z,1.90
2019-01-14T07:35:20.062Z,2.40
2019-01-14T07:37:49.316Z,3.00
2019-01-14T07:40:19.808Z,2.43
2019-01-14T07:42:48.979Z,3.13
2019-01-14T07:45:19.566Z,2.47
2019-01-14T07:47:48.771Z,2.47
2019-01-14T07:50:18.975Z,2.97
2019-01-14T07:52:48.804Z,4.27
2019-01-14T07:55:18.071Z,3.77
2019-01-14T07:57:47.242Z,2.83
2019-01-14T08:00:19.173Z,3.80
2019-01-14T08:02:48.450Z,3.67
2019-01-14T08:05:17.636Z,2.73
2019-01-14T08:07:47.058Z,5.80
2019-01-14T08:10:16.261Z,3.60
2019-01-14T08:12:45.496Z,3.73
2019-01-14T08:15:17.082Z,3.57
2019-01-14T08:17:46.346Z,3.43
2019-01-14T08:20:15.794Z,3.97
2019-01-14T08:22:45.045Z,4.27
2019-01-14T08:25:15.204Z,3.63
2019-01-14T08:27:44.458Z,3.30
2019-01-14T08:30:16.149Z,2.97
2019-01-14T08:32:45.509Z,3.57
2019-01-14T08:35:14.859Z,2.97
2019-01-14T08:37:44.298Z,3.60
2019-01-14T08:40:15.828Z,2.30
2019-01-14T08:42:44.996Z,3.27
2019-01-14T08:45:14.646Z,2.83
2019-01-14T08:47:43.997Z,3.10
2019-01-14T08:50:18.261Z,3.03
2019-01-14T08:52:47.461Z,3.13
2019-01-14T08:55:16.670Z,3.27
2019-01-14T08:57:45.839Z,3.03
2019-01-14T09:00:19.837Z,2.73
2019-01-14T09:02:49.085Z,2.90
2019-01-14T09:05:18.510Z,2.40
2019-01-14T09:07:48.014Z,2.80
2019-01-14T09:10:20.287Z,3.17
2019-01-14T09:12:49.480Z,2.73
2019-01-14T09:15:19.463Z,2.37
2019-01-14T09:17:48.939Z,2.83
2019-01-14T09:20:20.256Z,2.30
2019-01-14T09:22:49.764Z,2.80
2019-01-14T09:25:19.042Z,2.00
2019-01-14T09:27:48.215Z,2.33
2019-01-14T09:30:19.767Z,2.40
2019-01-14T09:32:49.047Z,2.33
2019-01-14T09:35:18.482Z,2.30
2019-01-14T09:37:47.659Z,2.57
2019-01-14T09:40:22.033Z,2.47
2019-01-14T09:42:52.177Z,2.63
2019-01-14T09:45:21.496Z,2.30
2019-01-14T09:47:50.691Z,2.27
2019-01-14T09:50:19.862Z,1.67
2019-01-14T09:52:49.044Z,2.50
2019-01-14T09:55:19.271Z,1.80
2019-01-14T09:57:48.436Z,1.97
2019-01-14T10:00:17.708Z,1.93
2019-01-14T10:02:47.139Z,1.77
2019-01-14T10:05:17.754Z,2.03
2019-01-14T10:07:47.088Z,1.90
2019-01-14T10:10:17.848Z,1.70
2019-01-14T10:12:47.253Z,1.90
2019-01-14T10:15:18.830Z,1.70
2019-01-14T10:17:49.707Z,1.53
2019-01-14T10:20:18.908Z,1.83
2019-01-14T10:22:48.099Z,1.70
2019-01-14T10:25:17.381Z,1.40
2019-01-14T10:27:46.560Z,1.40
2019-01-14T10:30:18.074Z,1.47
2019-01-14T10:32:47.452Z,1.90
2019-01-14T10:35:16.673Z,1.67
2019-01-14T10:37:45.905Z,1.63
2019-01-14T10:40:18.175Z,1.93
2019-01-14T10:42:47.338Z,1.60
2019-01-14T10:45:18.958Z,1.80
2019-01-14T10:47:48.284Z,1.70
2019-01-14T10:50:17.521Z,2.20
2019-01-14T10:52:46.987Z,2.03
2019-01-14T10:55:16.367Z,2.23
2019-01-14T10:57:45.714Z,1.33
2019-01-14T11:00:20.587Z,1.83
2019-01-14T11:02:49.845Z,1.80
2019-01-14T11:05:24.674Z,2.27
2019-01-14T11:07:54.188Z,1.40
2019-01-14T11:10:23.406Z,1.47
2019-01-14T11:12:52.763Z,1.23
2019-01-14T11:15:22.759Z,1.67
2019-01-14T11:17:52.223Z,1.90
2019-01-14T11:20:26.757Z,1.33
2019-01-14T11:22:56.467Z,1.10
2019-01-14T11:25:25.710Z,1.77
2019-01-14T11:27:55.467Z,1.90
2019-01-14T11:30:26.774Z,2.07
2019-01-14T11:32:56.053Z,1.57
2019-01-14T11:35:25.402Z,1.20
2019-01-14T11:37:54.644Z,1.60
2019-01-14T11:40:26.258Z,1.50
2019-01-14T11:42:55.431Z,1.60
2019-01-14T11:45:24.597Z,1.40
2019-01-14T11:47:53.860Z,1.40
2019-01-14T11:50:23.943Z,1.40
2019-01-14T11:52:53.120Z,1.63
2019-01-14T11:55:22.304Z,1.47
2019-01-14T11:57:51.484Z,1.90
2019-01-14T12:00:25.540Z,1.30
2019-01-14T12:02:54.887Z,1.70
2019-01-14T12:05:24.111Z,1.77
2019-01-14T12:07:53.326Z,1.57
2019-01-14T12:10:22.662Z,1.67
2019-01-14T12:12:51.813Z,1.47
2019-01-14T12:15:26.517Z,1.03
2019-01-14T12:17:55.702Z,1.00
2019-01-14T12:20:24.854Z,1.20
2019-01-14T12:22:54.047Z,1.10
2019-01-14T12:25:23.300Z,1.20
2019-01-14T12:27:52.471Z,1.30
2019-01-14T12:30:30.354Z,1.33
2019-01-14T12:33:00.778Z,1.40
2019-01-14T12:35:30.139Z,1.50
2019-01-14T12:37:59.453Z,1.63
2019-01-14T12:40:28.705Z,1.87
2019-01-14T12:42:58.761Z,1.43
2019-01-14T12:45:28.083Z,1.30
2019-01-14T12:47:57.263Z,1.93
2019-01-14T12:50:26.625Z,2.43
2019-01-14T12:52:55.880Z,2.67
2019-01-14T12:55:25.143Z,1.93
2019-01-14T12:57:54.346Z,1.57
2019-01-14T13:00:28.813Z,1.90
2019-01-14T13:02:58.869Z,2.03
2019-01-14T13:05:30.795Z,2.83
2019-01-14T13:07:59.982Z,2.23
2019-01-14T13:10:29.153Z,2.07
2019-01-14T13:12:58.401Z,1.80
2019-01-14T13:15:28.327Z,1.90
2019-01-14T13:17:57.573Z,2.03
2019-01-14T13:20:27.747Z,2.13
2019-01-14T13:22:56.922Z,1.93
2019-01-14T13:25:26.163Z,2.90
2019-01-14T13:27:55.464Z,1.67
2019-01-14T13:30:27.303Z,1.60
2019-01-14T13:32:56.904Z,1.60
2019-01-14T13:35:26.226Z,2.07
2019-01-14T13:37:55.471Z,1.90
2019-01-14T13:40:24.728Z,1.70
2019-01-14T13:42:53.932Z,1.90
2019-01-14T13:45:23.742Z,1.60
2019-01-14T13:47:52.924Z,2.43
2019-01-14T13:50:26.576Z,2.13
2019-01-14T13:52:55.759Z,1.53
2019-01-14T13:55:25.319Z,1.77
2019-01-14T13:57:54.557Z,1.40
2019-01-14T14:00:25.083Z,2.00
2019-01-14T14:02:54.540Z,1.40
2019-01-14T14:05:23.707Z,3.47
2019-01-14T14:07:52.886Z,2.67
2019-01-14T14:10:28.115Z,2.10
2019-01-14T14:12:57.458Z,1.53
2019-01-14T14:15:26.893Z,1.90
2019-01-14T14:17:56.726Z,2.60
2019-01-14T14:20:26.032Z,1.43
2019-01-14T14:22:55.244Z,1.87
2019-01-14T14:25:24.482Z,1.70
2019-01-14T14:27:53.745Z,1.80
2019-01-14T14:30:31.250Z,2.67
2019-01-14T14:33:00.429Z,2.13
2019-01-14T14:35:29.608Z,2.47
2019-01-14T14:38:01.247Z,1.83
2019-01-14T14:40:29.918Z,2.27
2019-01-14T14:42:59.328Z,2.53
2019-01-14T14:45:28.526Z,1.50
2019-01-14T14:47:57.768Z,2.00
2019-01-14T14:50:26.953Z,1.80
2019-01-14T14:52:56.136Z,2.13
2019-01-14T14:55:25.374Z,2.13
2019-01-14T14:57:54.554Z,2.20
2019-01-14T15:00:23.899Z,2.00
2019-01-14T15:02:53.075Z,2.07
2019-01-14T15:05:22.246Z,2.23
2019-01-14T15:07:51.522Z,2.00
2019-01-14T15:10:21.751Z,2.60
2019-01-14T15:12:51.294Z,2.80
2019-01-14T15:15:22.215Z,1.63
2019-01-14T15:17:51.368Z,1.87
2019-01-14T15:20:22.472Z,2.30
2019-01-14T15:22:51.757Z,1.83
2019-01-14T15:25:20.986Z,2.40
2019-01-14T15:27:50.164Z,2.83
2019-01-14T15:30:24.484Z,1.50
2019-01-14T15:32:53.670Z,1.83
2019-01-14T15:35:23.138Z,1.80
2019-01-14T15:37:52.415Z,1.33
2019-01-14T15:40:23.167Z,2.13
2019-01-14T15:42:52.475Z,2.30
2019-01-14T15:45:23.509Z,2.17
2019-01-14T15:47:52.791Z,1.60
2019-01-14T15:50:22.035Z,2.17
2019-01-14T15:52:51.247Z,1.73
2019-01-14T15:55:22.974Z,1.83
2019-01-14T15:57:52.212Z,1.67
2019-01-14T16:00:21.556Z,1.90
2019-01-14T16:02:50.991Z,2.30
2019-01-14T16:05:20.249Z,2.27
2019-01-14T16:07:49.509Z,2.00
2019-01-14T16:10:21.209Z,2.47
2019-01-14T16:12:50.361Z,2.03
2019-01-14T16:15:19.572Z,2.30
2019-01-14T16:17:48.844Z,2.23
2019-01-14T16:20:20.360Z,2.43
2019-01-14T16:22:51.209Z,3.00
2019-01-14T16:25:20.457Z,2.17
2019-01-14T16:27:49.707Z,2.80
2019-01-14T16:30:23.859Z,2.70
2019-01-14T16:32:53.095Z,2.37
2019-01-14T16:35:22.303Z,2.07
2019-01-14T16:37:51.497Z,2.47
2019-01-14T16:40:20.678Z,2.27
2019-01-14T16:42:49.849Z,2.70
2019-01-14T16:45:23.869Z,1.87
2019-01-14T16:47:53.032Z,3.17
2019-01-14T16:50:22.441Z,2.10
2019-01-14T16:52:55.570Z,2.07
2019-01-14T16:55:29.109Z,1.80
2019-01-14T16:57:58.274Z,2.03
2019-01-14T17:00:27.466Z,2.27
2019-01-14T17:02:56.688Z,1.90
2019-01-14T17:05:25.852Z,2.00
2019-01-14T17:07:55.035Z,2.00
2019-01-14T17:10:25.353Z,1.87
2019-01-14T17:12:54.691Z,1.57
2019-01-14T17:15:23.843Z,1.60
2019-01-14T17:17:53.011Z,1.80
2019-01-14T17:20:22.199Z,2.00
2019-01-14T17:22:51.376Z,1.93
2019-01-14T17:25:21.548Z,1.73
2019-01-14T17:27:50.739Z,2.23
2019-01-14T17:30:19.913Z,2.37
2019-01-14T17:32:49.095Z,1.80
2019-01-14T17:35:18.273Z,1.60
2019-01-14T17:37:47.521Z,2.13
2019-01-14T17:40:19.187Z,1.73
2019-01-14T17:42:48.344Z,2.23
2019-01-14T17:45:17.525Z,2.30
2019-01-14T17:47:48.227Z,2.50
2019-01-14T17:50:19.420Z,2.00
2019-01-14T17:52:48.872Z,2.67
2019-01-14T17:55:18.109Z,2.50
2019-01-14T17:57:47.377Z,1.93
2019-01-14T18:00:22.469Z,1.80
2019-01-14T18:02:51.658Z,2.03
2019-01-14T18:05:20.853Z,2.50
2019-01-14T18:07:50.016Z,2.60
2019-01-14T18:10:20.336Z,2.60
2019-01-14T18:12:49.533Z,1.93
2019-01-14T18:15:18.685Z,1.93
2019-01-14T18:17:47.862Z,1.53
2019-01-14T18:20:18.585Z,1.33
2019-01-14T18:22:48.097Z,1.53
2019-01-14T18:25:17.275Z,2.20
2019-01-14T18:27:48.022Z,1.50
2019-01-14T18:30:19.370Z,2.07
2019-01-14T18:32:48.634Z,2.10
2019-01-14T18:35:17.854Z,1.70
2019-01-14T18:37:47.197Z,2.03
2019-01-14T18:40:18.807Z,1.40
2019-01-14T18:42:48.150Z,1.37
2019-01-14T18:45:18.443Z,1.67
2019-01-14T18:47:47.671Z,1.60
2019-01-14T18:50:19.343Z,1.57
2019-01-14T18:52:48.506Z,1.87
2019-01-14T18:55:18.673Z,1.67
2019-01-14T18:57:48.009Z,2.07
2019-01-14T19:00:19.695Z,1.53
2019-01-14T19:02:48.954Z,2.27
2019-01-14T19:05:18.195Z,2.33
2019-01-14T19:07:47.581Z,1.93
2019-01-14T19:10:16.894Z,2.57
2019-01-14T19:12:46.100Z,2.50
2019-01-14T19:15:17.443Z,2.47
2019-01-14T19:17:46.762Z,2.57
2019-01-14T19:20:26.263Z,2.33
2019-01-14T19:22:55.431Z,2.03
2019-01-14T19:25:24.599Z,2.37
2019-01-14T19:27:53.818Z,2.20
2019-01-14T19:30:23.344Z,2.13
2019-01-14T19:32:52.531Z,3.17
2019-01-14T19:35:21.821Z,2.50
2019-01-14T19:37:50.996Z,2.47
2019-01-14T19:40:21.366Z,2.27
2019-01-14T19:42:50.741Z,2.70
2019-01-14T19:45:20.538Z,2.23
2019-01-14T19:47:49.805Z,2.73
2019-01-14T19:50:21.120Z,2.63
2019-01-14T19:52:50.287Z,2.70
2019-01-14T19:55:20.469Z,2.67
2019-01-14T19:57:50.880Z,2.03
2019-01-14T20:00:23.005Z,2.43
2019-01-14T20:02:52.281Z,2.33
2019-01-14T20:05:21.802Z,2.90
2019-01-14T20:07:51.425Z,2.37
2019-01-14T20:10:21.442Z,3.10
2019-01-14T20:12:50.710Z,2.57
2019-01-14T20:15:21.511Z,2.23
2019-01-14T20:17:50.717Z,1.87
2019-01-14T20:20:20.021Z,2.27
2019-01-14T20:22:49.154Z,2.13
2019-01-14T20:25:18.398Z,2.23
2019-01-14T20:27:47.628Z,2.33
2019-01-14T20:30:19.462Z,2.13
2019-01-14T20:32:48.663Z,2.37
2019-01-14T20:35:19.606Z,2.03
2019-01-14T20:37:48.846Z,2.07
2019-01-14T20:40:18.197Z,2.00
2019-01-14T20:42:47.371Z,1.87
2019-01-14T20:45:17.484Z,2.43
2019-01-14T20:47:47.569Z,2.07
2019-01-14T20:50:19.761Z,2.07
2019-01-14T20:52:48.932Z,2.33
2019-01-14T20:55:18.134Z,2.13
2019-01-14T20:57:47.355Z,1.80
2019-01-14T21:00:20.698Z,1.50
2019-01-14T21:02:50.067Z,2.00
2019-01-14T21:05:19.515Z,2.00
2019-01-14T21:07:48.679Z,1.77
2019-01-14T21:10:18.131Z,1.97
2019-01-14T21:12:47.354Z,1.47
2019-01-14T21:15:16.612Z,1.63
2019-01-14T21:17:45.817Z,1.97
2019-01-14T21:20:23.376Z,1.80
2019-01-14T21:22:52.943Z,2.20
2019-01-14T21:25:22.175Z,1.70
2019-01-14T21:27:51.437Z,2.63
2019-01-14T21:30:22.882Z,1.90
2019-01-14T21:32:52.127Z,2.40
2019-01-14T21:35:21.290Z,2.00
2019-01-14T21:37:51.222Z,1.93
2019-01-14T21:40:20.368Z,1.90
2019-01-14T21:42:49.539Z,2.90
2019-01-14T21:45:18.771Z,1.80
2019-01-14T21:47:48.083Z,2.40
2019-01-14T21:50:19.204Z,2.23
2019-01-14T21:52:48.605Z,2.13
2019-01-14T21:55:20.130Z,2.00
2019-01-14T21:57:49.280Z,1.73
2019-01-14T22:00:21.324Z,2.17
2019-01-14T22:02:50.493Z,1.83
2019-01-14T22:05:20.227Z,2.13
2019-01-14T22:07:49.492Z,2.17
2019-01-14T22:10:23.603Z,2.37
2019-01-14T22:12:52.820Z,2.13
2019-01-14T22:15:22.178Z,2.57
2019-01-14T22:17:54.345Z,1.60
2019-01-14T22:20:25.545Z,1.67
2019-01-14T22:22:54.806Z,1.93
2019-01-14T22:25:23.972Z,2.07
2019-01-14T22:27:53.153Z,2.27
2019-01-14T22:30:30.616Z,1.77
2019-01-14T22:32:59.819Z,2.20
2019-01-14T22:35:29.078Z,2.27
2019-01-14T22:37:59.263Z,1.93
2019-01-14T22:40:29.441Z,2.23
2019-01-14T22:42:58.623Z,2.40
2019-01-14T22:45:27.926Z,1.83
2019-01-14T22:47:57.120Z,1.83
2019-01-14T22:50:26.433Z,2.17
2019-01-14T22:52:55.618Z,2.27
2019-01-14T22:55:24.855Z,2.37
2019-01-14T22:57:54.055Z,2.00
2019-01-14T23:00:27.780Z,2.07
2019-01-14T23:02:57.026Z,2.00
2019-01-14T23:05:26.269Z,2.13
2019-01-14T23:07:55.459Z,2.10
2019-01-14T23:10:25.562Z,1.90
2019-01-14T23:12:54.730Z,2.10
2019-01-14T23:15:23.925Z,2.47
2019-01-14T23:17:53.123Z,2.07
2019-01-14T23:20:22.286Z,2.17
2019-01-14T23:22:51.479Z,2.13
2019-01-14T23:25:20.639Z,2.07
2019-01-14T23:27:49.804Z,2.13
2019-01-14T23:30:19.096Z,2.70
2019-01-14T23:32:48.265Z,2.83
2019-01-14T23:35:17.442Z,1.73
2019-01-14T23:37:46.647Z,2.17
2019-01-14T23:40:15.831Z,1.90
2019-01-14T23:42:45.007Z,1.63
2019-01-14T23:45:14.285Z,2.30
2019-01-14T23:47:43.587Z,2.17
2019-01-14T23:50:12.909Z,2.00
2019-01-14T23:52:42.114Z,2.20
2019-01-14T23:55:11.363Z,2.50
2019-01-14T23:57:40.530Z,2.37
